Time;durP1;ratioP1;P1;durP2;ratioP2;P2;SDS_P1;SDS_P2;PMS_P1;PMS_P2;Temp;Humidity;BMP_temperature;BMP_pressure;BME280_temperature;BME280_humidity;BME280_pressure;Samples;Min_cycle;Max_cycle;Signal;HPM_P1;HPM_P2
2023/10/24 00:01:32;;;;;;;8.27;2.07;;;25.20;50.20;;;;;;5051276;28;20513;-69
2023/10/24 00:04:00;;;;;;;7.00;2.10;;;25.40;48.20;;;;;;5051687;28;20269;-67
2023/10/24 00:06:27;;;;;;;5.23;1.83;;;25.60;47.80;;;;;;5051202;28;20184;-68
2023/10/24 00:08:54;;;;;;;8.03;1.80;;;25.50;46.70;;;;;;5051459;28;20198;-69
2023/10/24 00:11:22;;;;;;;7.37;1.80;;;25.60;46.80;;;;;;5051208;28;20188;-68
2023/10/24 00:13:49;;;;;;;7.63;2.03;;;25.70;46.00;;;;;;5051310;28;20548;-69
2023/10/24 00:16:16;;;;;;;5.87;1.53;;;25.80;46.00;;;;;;5051159;28;20266;-70
2023/10/24 00:18:44;;;;;;;10.70;2.17;;;25.80;45.60;;;;;;5051349;28;20650;-70
2023/10/24 00:21:11;;;;;;;6.00;1.97;;;25.70;49.20;;;;;;5050993;28;20183;-70
2023/10/24 00:23:38;;;;;;;10.17;2.07;;;25.80;48.40;;;;;;5051286;28;20186;-69
2023/10/24 00:26:06;;;;;;;8.13;2.20;;;26.20;47.50;;;;;;5051442;28;20184;-67
2023/10/24 00:28:34;;;;;;;7.37;2.17;;;26.10;46.80;;;;;;5049194;28;20258;-72
2023/10/24 00:31:03;;;;;;;4.43;1.73;;;26.50;46.40;;;;;;5048382;28;20172;-72
2023/10/24 00:33:31;;;;;;;6.77;2.33;;;26.70;46.20;;;;;;5050223;28;20176;-70
2023/10/24 00:35:58;;;;;;;7.50;2.30;;;26.90;46.40;;;;;;5050798;28;20319;-67
2023/10/24 00:38:25;;;;;;;8.67;2.67;;;26.90;46.90;;;;;;5048997;28;20523;-69
2023/10/24 00:40:53;;;;;;;7.93;2.30;;;27.10;47.50;;;;;;5051690;28;20281;-70
2023/10/24 00:43:20;;;;;;;5.73;2.20;;;26.40;48.00;;;;;;5049626;28;20219;-67
2023/10/24 00:45:48;;;;;;;8.07;2.13;;;26.60;46.90;;;;;;5052613;28;20180;-70
2023/10/24 00:48:15;;;;;;;5.30;1.83;;;27.00;45.40;;;;;;5050226;28;20256;-71
2023/10/24 00:50:43;;;;;;;10.50;3.00;;;27.20;47.70;;;;;;5051414;28;20210;-69
2023/10/24 00:53:11;;;;;;;11.37;2.50;;;27.50;48.60;;;;;;5050660;28;20180;-70
2023/10/24 00:55:39;;;;;;;6.30;2.40;;;27.30;48.50;;;;;;5051148;28;20187;-70
2023/10/24 00:58:09;;;;;;;14.70;2.80;;;27.30;48.40;;;;;;5050899;28;20184;-69
2023/10/24 01:00:37;;;;;;;9.03;2.13;;;27.60;47.90;;;;;;5051144;28;20693;-70
2023/10/24 01:03:06;;;;;;;11.20;2.47;;;27.60;48.50;;;;;;5050808;28;20662;-69
2023/10/24 01:05:33;;;;;;;7.93;2.50;;;27.70;48.60;;;;;;5051188;28;20700;-72
2023/10/24 01:08:01;;;;;;;9.43;2.83;;;27.60;49.00;;;;;;5050638;28;20180;-69
2023/10/24 01:10:28;;;;;;;7.53;2.53;;;27.80;48.00;;;;;;5050975;28;20278;-71
2023/10/24 01:12:56;;;;;;;10.47;2.60;;;27.90;47.90;;;;;;5053648;28;20234;-70
2023/10/24 01:15:23;;;;;;;7.47;2.67;;;28.00;47.00;;;;;;5054405;28;20188;-71
2023/10/24 01:17:51;;;;;;;7.03;2.23;;;27.90;47.30;;;;;;5054106;28;20225;-72
2023/10/24 01:20:19;;;;;;;11.20;3.57;;;27.90;47.50;;;;;;5053240;28;20221;-70
2023/10/24 01:22:47;;;;;;;8.27;4.47;;;27.90;48.50;;;;;;5053344;28;20203;-71
2023/10/24 01:25:16;;;;;;;8.23;2.67;;;28.10;46.30;;;;;;5052984;28;20275;-68
2023/10/24 01:27:44;;;;;;;12.83;3.10;;;27.60;46.50;;;;;;5054656;28;20638;-68
2023/10/24 01:30:13;;;;;;;6.57;2.43;;;27.50;47.40;;;;;;5053961;28;20188;-71
2023/10/24 01:32:41;;;;;;;6.47;2.30;;;27.80;46.90;;;;;;5054144;28;20216;-70
2023/10/24 01:35:10;;;;;;;7.93;2.43;;;27.80;46.00;;;;;;5053380;28;20250;-71
2023/10/24 01:37:37;;;;;;;9.13;2.47;;;27.80;45.80;;;;;;5047463;28;20541;-69
2023/10/24 01:40:06;;;;;;;10.43;2.97;;;27.90;46.60;;;;;;5053014;28;20215;-69
2023/10/24 01:42:34;;;;;;;8.13;2.23;;;28.20;45.40;;;;;;5052172;28;20260;-71
2023/10/24 01:45:02;;;;;;;8.87;2.63;;;28.30;45.00;;;;;;5054016;28;20729;-69
2023/10/24 01:47:29;;;;;;;5.10;2.30;;;28.10;45.90;;;;;;5053884;28;20557;-72
2023/10/24 01:49:57;;;;;;;7.87;2.43;;;27.80;46.50;;;;;;5053514;28;20278;-74
2023/10/24 01:52:24;;;;;;;5.47;2.63;;;27.50;47.60;;;;;;5053985;28;20205;-72
2023/10/24 01:54:52;;;;;;;6.33;2.33;;;27.60;47.80;;;;;;5053374;28;20592;-71
2023/10/24 01:57:19;;;;;;;7.57;2.43;;;27.40;47.70;;;;;;5052405;28;20211;-70
2023/10/24 01:59:47;;;;;;;4.77;1.90;;;27.70;47.30;;;;;;5052871;28;20222;-70
2023/10/24 02:02:14;;;;;;;9.37;2.33;;;27.60;47.10;;;;;;5053527;28;20745;-71
2023/10/24 02:04:42;;;;;;;7.73;2.40;;;27.20;48.00;;;;;;5051671;28;20568;-71
2023/10/24 02:07:10;;;;;;;6.67;2.00;;;27.40;48.40;;;;;;5051965;28;20184;-71
2023/10/24 02:09:37;;;;;;;7.07;2.30;;;27.10;49.70;;;;;;5053775;28;20630;-68
2023/10/24 02:12:05;;;;;;;10.60;2.97;;;27.60;49.70;;;;;;5053402;28;20198;-70
2023/10/24 02:14:32;;;;;;;9.47;3.13;;;27.50;49.60;;;;;;5054082;28;20195;-72
2023/10/24 02:17:00;;;;;;;4.83;1.90;;;27.60;49.60;;;;;;5052886;28;20577;-70
2023/10/24 02:19:28;;;;;;;11.40;2.47;;;27.40;49.60;;;;;;5053557;28;20214;-69
2023/10/24 02:21:56;;;;;;;5.67;2.50;;;27.40;49.80;;;;;;5053154;28;20199;-68
2023/10/24 02:24:23;;;;;;;9.40;2.77;;;27.30;50.50;;;;;;5053580;28;20238;-69
2023/10/24 02:26:50;;;;;;;13.03;2.80;;;27.50;50.40;;;;;;5053494;28;20187;-70
2023/10/24 02:29:18;;;;;;;7.10;2.37;;;27.70;49.50;;;;;;5053488;28;20176;-70
2023/10/24 02:31:45;;;;;;;7.83;2.83;;;27.70;48.70;;;;;;5051569;28;20626;-70
2023/10/24 02:34:12;;;;;;;9.13;2.80;;;27.80;49.10;;;;;;5047506;28;20184;-70
2023/10/24 02:36:40;;;;;;;14.20;2.63;;;27.90;48.40;;;;;;5053363;28;20242;-70
2023/10/24 02:39:07;;;;;;;5.97;2.10;;;28.30;47.30;;;;;;5052512;28;20218;-71
2023/10/24 02:41:35;;;;;;;5.07;2.03;;;28.30;44.40;;;;;;5053068;28;20187;-72
2023/10/24 02:44:02;;;;;;;5.27;2.30;;;28.30;45.10;;;;;;5052161;28;20638;-72
2023/10/24 02:46:30;;;;;;;5.27;2.63;;;28.30;43.50;;;;;;5053400;28;20215;-70
2023/10/24 02:48:57;;;;;;;14.03;5.13;;;28.30;43.10;;;;;;5054183;28;20184;-74
2023/10/24 02:51:25;;;;;;;7.17;3.20;;;28.10;42.60;;;;;;5048312;28;20195;-73
2023/10/24 02:53:52;;;;;;;6.93;2.93;;;28.10;41.80;;;;;;5053149;28;20191;-72
2023/10/24 02:56:19;;;;;;;11.43;2.60;;;27.90;42.20;;;;;;5055208;28;20214;-69
2023/10/24 03:09:27;;;;;;;8.17;2.73;;;28.60;40.80;;;;;;5052973;28;20187;-71
2023/10/24 03:12:09;;;;;;;7.30;2.37;;;28.80;40.80;;;;;;5051331;28;20180;-68
2023/10/24 03:14:37;;;;;;;5.07;2.30;;;28.80;40.30;;;;;;5047460;28;20187;-69
2023/10/24 03:17:04;;;;;;;7.50;2.95;;;28.70;41.00;;;;;;5052166;28;20532;-72
2023/10/24 03:19:34;;;;;;;12.33;2.80;;;28.80;40.60;;;;;;5052908;28;20295;-74
2023/10/24 03:22:02;;;;;;;5.40;2.07;;;29.00;40.60;;;;;;5051413;28;20206;-71
2023/10/24 03:24:32;;;;;;;7.88;2.58;;;28.60;41.80;;;;;;5045945;28;20180;-73
2023/10/24 03:27:03;;;;;;;9.27;3.47;;;28.70;42.40;;;;;;5052450;28;20731;-72
2023/10/24 03:29:35;;;;;;;10.25;3.78;;;29.30;41.50;;;;;;5045896;28;20176;-72
2023/10/24 03:32:03;;;;;;;10.03;3.70;;;29.20;42.60;;;;;;5051432;28;20191;-71
2023/10/24 03:34:30;;;;;;;9.03;3.90;;;28.80;44.30;;;;;;5044861;28;20188;-72
2023/10/24 03:37:00;;;;;;;12.43;3.93;;;28.40;45.60;;;;;;5051561;28;20219;-70
2023/10/24 03:39:38;;;;;;;13.23;4.28;;;28.90;45.40;;;;;;5052470;28;20652;-71
2023/10/24 03:42:13;;;;;;;12.40;4.67;;;28.90;45.50;;;;;;5051706;28;20576;-71
2023/10/24 03:44:43;;;;;;;11.77;4.93;;;29.30;45.50;;;;;;5051467;28;20180;-70
2023/10/24 03:47:11;;;;;;;8.63;4.35;;;28.80;47.00;;;;;;5051333;28;20187;-72
2023/10/24 03:49:38;;;;;;;14.40;4.97;;;29.30;46.30;;;;;;5050457;28;20180;-71
2023/10/24 03:52:06;;;;;;;15.00;4.57;;;29.50;45.90;;;;;;5051549;28;20626;-70
2023/10/24 03:54:34;;;;;;;12.50;4.77;;;29.20;46.70;;;;;;5050630;28;20720;-69
2023/10/24 03:57:04;;;;;;;9.30;4.87;;;28.90;47.70;;;;;;5050458;28;20192;-71
2023/10/24 03:59:32;;;;;;;12.38;4.95;;;28.70;48.80;;;;;;5044158;28;20203;-71
2023/10/24 04:02:00;;;;;;;9.93;4.40;;;29.60;47.30;;;;;;5051226;28;20642;-71
2023/10/24 04:04:29;;;;;;;15.40;4.55;;;29.50;47.70;;;;;;5051365;28;20237;-73
2023/10/24 04:06:57;;;;;;;19.13;5.07;;;29.90;46.10;;;;;;5050723;28;20184;-72
2023/10/24 04:09:24;;;;;;;10.50;4.05;;;29.50;47.30;;;;;;5051366;28;20194;-70
2023/10/24 04:11:51;;;;;;;14.45;4.90;;;29.50;47.50;;;;;;5053983;28;20223;-68
2023/10/24 04:14:19;;;;;;;10.40;4.20;;;29.80;47.50;;;;;;5051636;28;20306;-70
2023/10/24 04:16:46;;;;;;;16.23;4.72;;;29.60;48.00;;;;;;5051366;28;20270;-72
2023/10/24 04:19:14;;;;;;;9.53;3.93;;;29.30;48.20;;;;;;5051296;28;20265;-69
2023/10/24 04:21:41;;;;;;;11.10;3.83;;;29.80;47.90;;;;;;5051465;28;20219;-69
2023/10/24 04:24:17;;;;;;;12.10;4.35;;;29.70;47.80;;;;;;5051609;28;20187;-72
2023/10/24 04:26:45;;;;;;;12.98;3.83;;;29.40;48.70;;;;;;5049882;28;20190;-72
2023/10/24 04:29:12;;;;;;;14.18;4.40;;;29.60;48.50;;;;;;5049523;28;20577;-71
2023/10/24 04:31:40;;;;;;;15.65;3.72;;;30.20;47.40;;;;;;5051363;28;20191;-69
2023/10/24 04:34:08;;;;;;;9.63;3.85;;;30.20;47.10;;;;;;5047017;28;20218;-70
2023/10/24 04:36:35;;;;;;;11.20;3.88;;;30.10;48.20;;;;;;5051699;28;20223;-68
2023/10/24 04:39:03;;;;;;;14.70;4.38;;;29.80;48.50;;;;;;5050278;28;20184;-70
2023/10/24 04:41:30;;;;;;;10.02;3.95;;;29.80;47.70;;;;;;5051975;28;20271;-69
2023/10/24 04:43:57;;;;;;;12.02;4.25;;;29.60;49.20;;;;;;5049587;28;20187;-70
2023/10/24 04:46:25;;;;;;;13.00;4.32;;;29.90;48.30;;;;;;5051761;28;20183;-71
2023/10/24 04:48:52;;;;;;;13.02;4.13;;;29.70;48.60;;;;;;5055079;28;20184;-69
2023/10/24 04:51:19;;;;;;;11.20;4.25;;;29.60;48.60;;;;;;5054265;28;20574;-69
2023/10/24 04:53:47;;;;;;;14.48;4.15;;;29.60;48.70;;;;;;5048174;28;20263;-70
2023/10/24 04:56:14;;;;;;;12.10;3.60;;;29.00;51.20;;;;;;5055491;28;20172;-70
2023/10/24 04:58:41;;;;;;;11.05;4.00;;;29.30;49.30;;;;;;5055503;28;20191;-71
2023/10/24 05:01:09;;;;;;;16.83;4.20;;;29.00;50.10;;;;;;5054700;28;20214;-71
2023/10/24 05:03:38;;;;;;;17.35;4.75;;;28.50;51.40;;;;;;5054779;28;20227;-74
2023/10/24 05:06:06;;;;;;;11.02;3.67;;;28.80;51.10;;;;;;5054049;28;20183;-70
2023/10/24 05:08:34;;;;;;;13.07;3.85;;;28.90;50.50;;;;;;5055314;28;20180;-71
2023/10/24 05:11:02;;;;;;;12.25;3.92;;;28.90;50.60;;;;;;5053559;28;20251;-70
2023/10/24 05:13:29;;;;;;;11.87;4.10;;;29.30;50.40;;;;;;5052426;28;20175;-68
2023/10/24 05:15:57;;;;;;;9.80;3.50;;;29.60;50.30;;;;;;5050337;28;20660;-71
2023/10/24 05:18:25;;;;;;;11.73;3.75;;;29.70;49.20;;;;;;5057954;28;20183;-70
2023/10/24 05:20:52;;;;;;;11.63;3.75;;;29.30;50.30;;;;;;5052574;28;20317;-68
2023/10/24 05:23:19;;;;;;;11.40;3.90;;;28.70;51.50;;;;;;5053467;28;20203;-70
2023/10/24 05:25:47;;;;;;;15.15;4.00;;;29.50;50.80;;;;;;5053593;28;20195;-71
2023/10/24 05:28:14;;;;;;;16.20;4.25;;;29.40;50.60;;;;;;5049952;28;20195;-71
2023/10/24 05:30:42;;;;;;;13.10;4.15;;;28.80;52.10;;;;;;5050903;28;20194;-74
2023/10/24 05:33:09;;;;;;;12.37;4.00;;;28.60;52.20;;;;;;5052181;28;20210;-70
2023/10/24 05:35:36;;;;;;;13.93;3.63;;;29.20;50.80;;;;;;5049466;28;20234;-71
2023/10/24 05:38:04;;;;;;;12.03;3.90;;;29.30;51.00;;;;;;5055721;28;20191;-71
2023/10/24 05:40:31;;;;;;;10.38;3.45;;;29.40;51.50;;;;;;5053898;28;20270;-69
2023/10/24 05:42:58;;;;;;;11.45;3.97;;;29.80;50.10;;;;;;5053594;28;20270;-70
2023/10/24 05:45:26;;;;;;;11.37;3.77;;;29.30;51.20;;;;;;5053285;28;20180;-71
2023/10/24 05:47:53;;;;;;;13.55;4.05;;;29.20;52.20;;;;;;5050868;28;20187;-71
2023/10/24 05:50:21;;;;;;;11.43;4.00;;;29.80;50.50;;;;;;5052134;28;20202;-68
2023/10/24 05:52:49;;;;;;;15.80;4.43;;;30.10;49.70;;;;;;5051846;28;20180;-72
2023/10/24 05:55:17;;;;;;;14.60;4.30;;;29.20;52.40;;;;;;5053757;28;20188;-73
2023/10/24 05:57:45;;;;;;;13.18;4.00;;;29.30;52.50;;;;;;5049090;28;20191;-71
2023/10/24 06:00:12;;;;;;;15.25;3.70;;;29.50;52.40;;;;;;5049450;28;20302;-72
2023/10/24 06:02:40;;;;;;;19.37;4.13;;;28.70;55.20;;;;;;5050774;28;20184;-73
2023/10/24 06:05:11;;;;;;;14.10;3.93;;;29.30;53.80;;;;;;5051831;28;20180;-73
2023/10/24 06:07:38;;;;;;;13.87;4.23;;;28.80;55.50;;;;;;5050357;28;20172;-76
2023/10/24 06:10:06;;;;;;;17.83;4.73;;;28.90;54.70;;;;;;5052392;28;20176;-70
2023/10/24 06:12:34;;;;;;;14.20;4.33;;;28.40;56.90;;;;;;5050251;28;20226;-73
2023/10/24 06:15:05;;;;;;;13.43;4.13;;;28.30;56.90;;;;;;5052290;28;20249;-71
2023/10/24 06:17:57;;;;;;;16.48;4.32;;;28.30;57.70;;;;;;5050769;28;20198;-73
2023/10/24 06:23:39;;;;;;;19.10;4.67;;;29.00;55.20;;;;;;5057524;28;20191;-73
2023/10/24 06:26:27;;;;;;;19.70;4.43;;;29.10;55.30;;;;;;5050990;28;20614;-72
2023/10/24 06:29:15;;;;;;;17.40;4.10;;;29.10;55.10;;;;;;5053567;28;20191;-73
2023/10/24 06:31:42;;;;;;;15.88;4.25;;;28.90;56.20;;;;;;5050110;28;20245;-70
2023/10/24 06:37:56;;;;;;;12.67;4.07;;;28.90;56.00;;;;;;5013008;28;20228;-71
2023/10/24 06:41:16;;;;;;;15.77;4.77;;;28.70;56.50;;;;;;5039454;28;20726;-70
2023/10/24 06:47:10;;;;;;;18.90;5.17;;;28.40;57.60;;;;;;5038097;28;20269;-71
2023/10/24 06:49:50;;;;;;;17.60;4.70;;;28.30;58.50;;;;;;5046749;28;20184;-74
2023/10/24 06:52:17;;;;;;;18.07;5.50;;;28.00;59.00;;;;;;5049896;28;20286;-74
2023/10/24 06:57:51;;;;;;;15.60;5.53;;;28.30;58.10;;;;;;5054415;28;20244;-73
2023/10/24 07:00:25;;;;;;;14.93;4.90;;;28.20;58.30;;;;;;5051350;28;20230;-71
2023/10/24 07:02:53;;;;;;;14.43;5.70;;;28.00;59.50;;;;;;5054239;28;20259;-73
2023/10/24 07:05:21;;;;;;;21.30;5.57;;;27.60;61.30;;;;;;5050687;28;20556;-75
2023/10/24 07:07:49;;;;;;;16.43;5.30;;;27.10;62.60;;;;;;5053741;28;21684;-70
2023/10/24 07:10:37;;;;;;;19.07;5.43;;;27.30;61.80;;;;;;5056226;28;20188;-71
2023/10/24 07:13:26;;;;;;;19.73;5.97;;;26.60;64.70;;;;;;5054631;28;20192;-74
2023/10/24 07:15:56;;;;;;;21.43;5.80;;;26.60;65.00;;;;;;5056492;28;20188;-70
2023/10/24 07:18:24;;;;;;;18.50;5.50;;;26.40;66.10;;;;;;5054751;28;20230;-73
2023/10/24 07:21:29;;;;;;;18.57;5.47;;;26.10;66.00;;;;;;5049878;28;20223;-74
2023/10/24 07:24:19;;;;;;;17.77;5.83;;;26.10;67.50;;;;;;5049583;28;20179;-72
2023/10/24 07:26:50;;;;;;;17.00;5.43;;;25.80;68.40;;;;;;5050453;28;20647;-72
2023/10/24 07:29:21;;;;;;;19.03;5.70;;;25.50;68.60;;;;;;5048658;28;20179;-70
2023/10/24 07:31:51;;;;;;;22.57;6.33;;;25.30;69.90;;;;;;5052556;28;20191;-72
2023/10/24 07:34:21;;;;;;;20.37;6.57;;;25.00;70.90;;;;;;5052551;28;20184;-71
2023/10/24 07:36:54;;;;;;;23.27;6.17;;;24.70;72.50;;;;;;5053917;28;20273;-75
2023/10/24 07:39:22;;;;;;;24.23;6.77;;;24.40;73.20;;;;;;5079903;28;20238;-76
2023/10/24 07:41:54;;;;;;;24.27;6.53;;;24.30;73.30;;;;;;5044842;28;20213;-74
2023/10/24 07:44:30;;;;;;;21.33;6.70;;;24.10;73.90;;;;;;5054130;28;20604;-72
2023/10/24 07:46:58;;;;;;;16.67;5.90;;;24.10;74.60;;;;;;5068865;28;20551;-75
2023/10/24 07:49:25;;;;;;;19.63;6.43;;;24.00;75.10;;;;;;5065256;28;20478;-73
2023/10/24 07:51:58;;;;;;;17.40;6.67;;;23.80;75.70;;;;;;5061659;28;20176;-75
2023/10/24 07:54:26;;;;;;;22.60;6.27;;;23.70;76.50;;;;;;5054490;28;20278;-73
2023/10/24 07:56:57;;;;;;;17.17;5.77;;;23.60;77.10;;;;;;5061302;28;20203;-74
2023/10/24 07:59:25;;;;;;;17.43;5.73;;;23.60;77.40;;;;;;5046615;28;20239;-74
2023/10/24 08:01:56;;;;;;;22.23;6.60;;;23.50;77.60;;;;;;5052406;28;20183;-74
2023/10/24 08:04:43;;;;;;;20.90;6.17;;;23.50;78.00;;;;;;5052855;28;20583;-75
2023/10/24 08:07:19;;;;;;;16.67;6.13;;;23.40;78.00;;;;;;5054970;28;20281;-76
2023/10/24 08:09:53;;;;;;;22.03;5.70;;;23.40;78.00;;;;;;5048013;28;20629;-71
2023/10/24 08:12:29;;;;;;;21.03;6.07;;;23.30;78.50;;;;;;5053962;28;20188;-71
2023/10/24 08:15:06;;;;;;;23.67;6.83;;;23.30;79.10;;;;;;5049795;28;20184;-75
2023/10/24 08:17:33;;;;;;;18.53;5.13;;;23.30;79.50;;;;;;5057888;28;20175;-75
2023/10/24 08:20:02;;;;;;;19.63;6.10;;;23.20;79.90;;;;;;5052584;28;20214;-74
2023/10/24 08:22:33;;;;;;;20.93;6.10;;;23.10;80.30;;;;;;5049469;28;20174;-73
2023/10/24 08:25:04;;;;;;;28.83;6.70;;;23.10;80.60;;;;;;5046192;28;20265;-74
2023/10/24 08:27:31;;;;;;;20.73;6.17;;;23.00;80.80;;;;;;5051723;28;20184;-72
2023/10/24 08:30:04;;;;;;;19.90;6.23;;;22.90;81.10;;;;;;5051502;28;20168;-71
2023/10/24 08:32:44;;;;;;;23.07;6.20;;;22.90;81.10;;;;;;5049008;28;20229;-73
2023/10/24 08:35:11;;;;;;;22.60;6.57;;;22.90;81.30;;;;;;5048150;28;20686;-72
2023/10/24 08:37:38;;;;;;;23.30;6.43;;;22.80;81.50;;;;;;5052027;28;20237;-69
2023/10/24 08:40:07;;;;;;;18.47;6.03;;;22.80;81.70;;;;;;5055935;28;20229;-68
2023/10/24 08:42:36;;;;;;;21.30;6.17;;;22.80;81.70;;;;;;5050913;28;20660;-69
2023/10/24 08:45:04;;;;;;;29.50;7.13;;;22.80;81.80;;;;;;5048564;28;20202;-68
2023/10/24 08:47:33;;;;;;;24.77;6.27;;;22.80;82.00;;;;;;5049681;28;20230;-70
2023/10/24 08:50:01;;;;;;;31.27;7.33;;;22.80;82.00;;;;;;5047497;28;20658;-70
2023/10/24 08:52:33;;;;;;;28.67;7.30;;;22.80;82.00;;;;;;5049448;28;20195;-68
2023/10/24 08:55:04;;;;;;;27.20;6.53;;;22.80;82.00;;;;;;5050992;28;20190;-68
2023/10/24 08:57:38;;;;;;;26.37;6.80;;;22.70;82.00;;;;;;5050322;28;20188;-69
2023/10/24 09:00:10;;;;;;;30.97;7.03;;;22.70;81.80;;;;;;5063254;28;20202;-69
2023/10/24 09:02:41;;;;;;;16.90;6.00;;;22.70;81.80;;;;;;5049372;28;20168;-69
2023/10/24 09:05:15;;;;;;;20.97;6.10;;;22.60;81.70;;;;;;5051088;28;20287;-71
2023/10/24 09:07:43;;;;;;;22.83;6.40;;;22.60;81.80;;;;;;5051271;28;20179;-69
2023/10/24 09:10:10;;;;;;;22.10;7.17;;;22.60;81.60;;;;;;5050445;28;20184;-68
2023/10/24 09:12:39;;;;;;;21.83;6.10;;;22.60;81.50;;;;;;5049797;28;20180;-70
2023/10/24 09:15:12;;;;;;;28.90;6.57;;;22.70;81.60;;;;;;5049150;28;20199;-70
2023/10/24 09:17:40;;;;;;;30.83;6.17;;;22.70;81.80;;;;;;5048221;28;20226;-69
2023/10/24 09:20:08;;;;;;;30.30;6.83;;;22.70;81.90;;;;;;5050549;28;20207;-69
2023/10/24 09:22:35;;;;;;;29.73;6.97;;;22.60;82.10;;;;;;5049797;28;20211;-72
2023/10/24 09:25:04;;;;;;;26.83;11.47;;;22.60;82.40;;;;;;5047060;28;20183;-70
2023/10/24 09:27:31;;;;;;;25.57;9.30;;;22.60;82.60;;;;;;5047666;28;20712;-68
2023/10/24 09:29:59;;;;;;;28.13;9.50;;;22.50;82.50;;;;;;5047940;28;20259;-70
2023/10/24 09:32:27;;;;;;;24.57;5.80;;;22.50;82.50;;;;;;5050510;28;20210;-69
2023/10/24 09:34:54;;;;;;;24.63;6.00;;;22.50;82.50;;;;;;5054417;28;20183;-70
2023/10/24 09:37:21;;;;;;;25.53;6.57;;;22.50;82.60;;;;;;5051418;28;20253;-69
2023/10/24 09:39:56;;;;;;;25.10;7.47;;;22.40;82.90;;;;;;5053834;28;20223;-68
2023/10/24 09:42:31;;;;;;;27.83;7.10;;;22.40;83.00;;;;;;5051097;28;20226;-70
2023/10/24 09:45:00;;;;;;;23.93;7.47;;;22.40;83.20;;;;;;5057371;28;20187;-68
2023/10/24 09:47:28;;;;;;;31.57;7.67;;;22.30;83.40;;;;;;5053810;28;20263;-70
2023/10/24 09:49:57;;;;;;;20.07;6.73;;;22.30;83.60;;;;;;5052063;28;20538;-69
2023/10/24 09:52:29;;;;;;;24.80;7.03;;;22.30;83.40;;;;;;5049436;28;20191;-69
2023/10/24 09:54:58;;;;;;;23.73;6.00;;;22.30;83.40;;;;;;5052463;28;20180;-69
2023/10/24 09:57:26;;;;;;;19.60;6.33;;;22.30;83.40;;;;;;5054147;28;20196;-69
2023/10/24 09:59:56;;;;;;;26.23;7.67;;;22.30;83.50;;;;;;5053118;28;20573;-67
2023/10/24 10:02:25;;;;;;;21.33;6.30;;;22.30;83.30;;;;;;5053818;28;20646;-68
2023/10/24 10:04:53;;;;;;;27.77;7.83;;;22.30;83.30;;;;;;5050933;28;20529;-72
2023/10/24 10:07:21;;;;;;;27.70;6.97;;;22.30;83.20;;;;;;5052425;28;20241;-69
2023/10/24 10:09:56;;;;;;;25.10;7.20;;;22.30;83.50;;;;;;5050888;28;20194;-69
2023/10/24 10:12:25;;;;;;;23.53;6.93;;;22.30;83.30;;;;;;5052362;28;20257;-69
2023/10/24 10:15:11;;;;;;;27.70;7.60;;;22.30;83.40;;;;;;5050916;28;20203;-71
2023/10/24 10:18:19;;;;;;;24.00;7.20;;;22.20;83.50;;;;;;5051537;28;20194;-70
2023/10/24 10:20:55;;;;;;;24.10;6.80;;;22.20;83.60;;;;;;5051013;28;20245;-71
2023/10/24 10:23:53;;;;;;;28.43;6.50;;;22.20;83.70;;;;;;5051366;28;20736;-68
2023/10/24 10:27:11;;;;;;;32.70;7.63;;;22.20;83.90;;;;;;5052521;28;20227;-68
2023/10/24 10:30:16;;;;;;;21.23;6.60;;;22.20;83.90;;;;;;5051051;28;20199;-70
2023/10/24 10:33:00;;;;;;;26.33;6.27;;;22.10;83.90;;;;;;5047693;28;20605;-71
2023/10/24 10:35:49;;;;;;;26.47;7.07;;;22.00;84.20;;;;;;5046461;28;20180;-72
2023/10/24 10:38:35;;;;;;;29.43;7.43;;;22.00;84.10;;;;;;5055477;28;20216;-68
2023/10/24 10:41:26;;;;;;;28.30;6.80;;;22.00;84.10;;;;;;5055578;28;20230;-69
2023/10/24 10:43:59;;;;;;;22.03;6.43;;;21.90;84.10;;;;;;5048242;28;20681;-73
2023/10/24 10:46:29;;;;;;;25.80;7.23;;;21.80;83.90;;;;;;5053539;28;20171;-70
2023/10/24 10:49:04;;;;;;;26.63;7.77;;;21.80;84.20;;;;;;5050735;28;20179;-72
2023/10/24 10:51:34;;;;;;;20.77;6.17;;;21.70;84.20;;;;;;5050204;28;20661;-70
2023/10/24 10:54:04;;;;;;;25.23;7.33;;;21.60;84.30;;;;;;5052497;28;20191;-69
2023/10/24 10:56:34;;;;;;;23.80;6.90;;;21.60;84.60;;;;;;5054265;28;20218;-71
2023/10/24 10:59:36;;;;;;;24.43;7.03;;;21.50;84.80;;;;;;5052139;28;20200;-69
2023/10/24 11:02:24;;;;;;;28.73;7.33;;;21.50;85.10;;;;;;5049976;28;20202;-70
2023/10/24 11:04:51;;;;;;;27.70;7.40;;;21.50;85.20;;;;;;5050905;28;20275;-70
2023/10/24 11:07:38;;;;;;;22.37;7.67;;;21.40;85.50;;;;;;5053550;28;20215;-71
2023/10/24 11:10:14;;;;;;;29.17;7.03;;;21.50;85.90;;;;;;5050175;28;20643;-67
2023/10/24 11:12:48;;;;;;;23.80;7.27;;;21.40;86.00;;;;;;5051743;28;20176;-69
2023/10/24 11:15:17;;;;;;;30.13;7.90;;;21.40;86.00;;;;;;5054178;28;20210;-69
2023/10/24 11:17:46;;;;;;;28.17;7.03;;;21.30;85.80;;;;;;5051351;28;20183;-69
2023/10/24 11:20:13;;;;;;;26.63;7.20;;;21.30;85.70;;;;;;5055678;28;20816;-69
2023/10/24 11:22:40;;;;;;;21.50;6.70;;;21.20;85.90;;;;;;5055820;28;20650;-69
2023/10/24 11:25:16;;;;;;;22.37;7.00;;;21.10;86.00;;;;;;5055151;28;20199;-69
2023/10/24 11:27:44;;;;;;;22.83;7.53;;;21.20;86.10;;;;;;5050173;28;20187;-70
2023/10/24 11:30:11;;;;;;;33.67;8.10;;;21.10;86.00;;;;;;5057554;28;20207;-71
2023/10/24 11:32:40;;;;;;;27.03;8.00;;;21.10;86.20;;;;;;5057804;28;20706;-71
2023/10/24 11:35:08;;;;;;;26.60;7.40;;;21.00;85.90;;;;;;5048007;28;20195;-71
2023/10/24 11:37:35;;;;;;;25.97;7.57;;;21.00;86.30;;;;;;5054329;28;20239;-68
2023/10/24 11:40:02;;;;;;;22.47;7.33;;;21.00;86.20;;;;;;5053006;28;20640;-71
2023/10/24 11:42:33;;;;;;;22.53;7.67;;;20.90;86.30;;;;;;5046978;28;20227;-67
2023/10/24 11:45:01;;;;;;;26.00;7.93;;;20.90;86.30;;;;;;5052132;28;20202;-69
2023/10/24 11:47:28;;;;;;;25.00;8.37;;;20.90;86.40;;;;;;5050164;28;20563;-69
2023/10/24 11:49:56;;;;;;;29.13;7.77;;;20.80;86.50;;;;;;5049579;28;20196;-70
2023/10/24 11:52:24;;;;;;;21.93;9.03;;;20.80;86.40;;;;;;5047278;28;20559;-68
2023/10/24 11:54:53;;;;;;;21.20;8.27;;;20.80;86.50;;;;;;5050749;28;20187;-68
2023/10/24 11:57:25;;;;;;;21.60;7.87;;;20.80;86.60;;;;;;5050919;28;20172;-69
2023/10/24 11:59:54;;;;;;;21.27;8.47;;;20.70;86.40;;;;;;5052214;28;20614;-69
2023/10/24 12:02:22;;;;;;;26.23;8.50;;;20.70;86.50;;;;;;5049708;28;20190;-69
2023/10/24 12:04:50;;;;;;;25.80;7.60;;;20.70;86.80;;;;;;5051473;28;20179;-68
2023/10/24 12:07:18;;;;;;;24.83;8.43;;;20.60;86.70;;;;;;5054996;28;20219;-70
2023/10/24 12:09:45;;;;;;;26.33;8.57;;;20.70;87.00;;;;;;5050820;28;20188;-70
2023/10/24 12:12:15;;;;;;;22.07;7.93;;;20.70;86.90;;;;;;5053231;28;20187;-68
2023/10/24 12:14:44;;;;;;;26.77;8.53;;;20.60;87.00;;;;;;5053048;28;20211;-71
2023/10/24 12:17:11;;;;;;;28.10;9.43;;;20.60;87.30;;;;;;5057385;28;20183;-68
2023/10/24 12:19:39;;;;;;;36.47;9.40;;;20.60;87.60;;;;;;5048917;28;20225;-68
2023/10/24 12:22:06;;;;;;;33.30;9.33;;;20.60;87.90;;;;;;5054723;28;20543;-69
2023/10/24 12:24:34;;;;;;;28.57;8.70;;;20.60;87.90;;;;;;5056013;28;20233;-69
2023/10/24 12:27:01;;;;;;;28.30;8.87;;;20.60;88.10;;;;;;5052998;28;20219;-69
2023/10/24 12:29:28;;;;;;;27.93;8.80;;;20.60;88.10;;;;;;5045046;28;20884;-69
2023/10/24 12:31:55;;;;;;;29.63;9.20;;;20.50;88.10;;;;;;5059269;28;20187;-69
2023/10/24 12:34:23;;;;;;;26.07;9.17;;;20.40;87.90;;;;;;5056789;28;20184;-70
2023/10/24 12:36:53;;;;;;;25.70;8.23;;;20.30;88.00;;;;;;5054638;28;20215;-71
2023/10/24 12:39:21;;;;;;;22.67;8.67;;;20.40;88.00;;;;;;5050647;28;20661;-71
2023/10/24 12:41:48;;;;;;;30.20;8.33;;;20.30;87.90;;;;;;5058217;28;20203;-68
2023/10/24 12:44:17;;;;;;;26.97;8.80;;;20.30;88.30;;;;;;5050654;28;20284;-68
2023/10/24 12:46:45;;;;;;;22.30;8.30;;;20.30;88.30;;;;;;5056302;28;20184;-68
2023/10/24 12:49:12;;;;;;;29.33;9.20;;;20.30;88.40;;;;;;5051535;28;20662;-70
2023/10/24 12:51:41;;;;;;;30.47;8.93;;;20.30;88.40;;;;;;5054859;28;20673;-71
2023/10/24 12:54:08;;;;;;;27.23;9.07;;;20.30;88.30;;;;;;5052427;28;20194;-70
2023/10/24 12:56:36;;;;;;;34.13;9.37;;;20.20;88.30;;;;;;5051158;28;20194;-68
2023/10/24 12:59:03;;;;;;;28.43;9.60;;;20.20;88.30;;;;;;5051209;28;20195;-70
2023/10/24 13:01:30;;;;;;;35.67;10.10;;;20.20;88.20;;;;;;5051098;28;20223;-69
2023/10/24 13:03:58;;;;;;;39.03;10.70;;;20.20;88.50;;;;;;5047471;28;20690;-69
2023/10/24 13:06:25;;;;;;;35.03;9.70;;;20.30;88.70;;;;;;5044798;28;21287;-72
2023/10/24 13:08:52;;;;;;;29.23;9.43;;;20.30;88.80;;;;;;5053108;28;20210;-72
2023/10/24 13:11:20;;;;;;;36.57;10.00;;;20.20;88.90;;;;;;5059073;28;20229;-72
2023/10/24 13:13:47;;;;;;;30.93;10.33;;;20.30;89.00;;;;;;5059658;28;20192;-71
2023/10/24 13:16:14;;;;;;;26.47;9.03;;;20.30;89.00;;;;;;5053428;28;20872;-72
2023/10/24 13:18:42;;;;;;;27.60;8.93;;;20.20;88.70;;;;;;5054151;28;20191;-70